Time;durP1;ratioP1;P1;durP2;ratioP2;P2;SDS_P1;SDS_P2;PMS_P1;PMS_P2;Temp;Humidity;BMP_temperature;BMP_pressure;BME280_temperature;BME280_humidity;BME280_pressure;Samples;Min_cycle;Max_cycle;Signal;HPM_P1;HPM_P2
2021/11/07 00:04:45;;;;;;;74.55;23.70;;;10.20;99.90;;;;;;5034544;28;20607;-84
2021/11/07 00:09:59;;;;;;;75.20;20.77;;;10.20;99.90;;;;;;5035576;28;20197;-84
2021/11/07 00:12:37;;;;;;;74.05;20.45;;;10.20;99.90;;;;;;5035309;28;20410;-83
2021/11/07 00:15:03;;;;;;;75.50;21.67;;;10.30;99.90;;;;;;5035072;28;20525;-83
2021/11/07 00:17:31;;;;;;;73.82;19.45;;;10.20;99.90;;;;;;5035024;28;20168;-84
2021/11/07 00:20:04;;;;;;;74.25;19.80;;;10.20;99.90;;;;;;5033703;28;20204;-83
2021/11/07 00:22:53;;;;;;;74.75;20.70;;;10.20;99.90;;;;;;5033745;28;20156;-84
2021/11/07 00:25:40;;;;;;;74.72;20.23;;;10.20;99.90;;;;;;5033672;28;20626;-84
2021/11/07 00:28:10;;;;;;;74.00;20.50;;;10.20;99.90;;;;;;5033808;28;20186;-83
2021/11/07 00:38:23;;;;;;;76.28;24.38;;;10.20;99.90;;;;;;5035629;28;20180;-84
2021/11/07 00:48:44;;;;;;;73.70;19.97;;;10.30;99.90;;;;;;5038293;28;20728;-88
2021/11/07 00:51:22;;;;;;;74.57;22.55;;;10.30;99.90;;;;;;5021028;28;20156;-87
2021/11/07 00:54:01;;;;;;;76.45;22.42;;;10.30;99.90;;;;;;5020557;28;20667;-87
2021/11/07 00:59:02;;;;;;;77.00;25.60;;;10.30;99.90;;;;;;5038025;28;20187;-87
2021/11/07 01:01:30;;;;;;;77.95;30.30;;;10.30;99.90;;;;;;5038892;28;20142;-87
2021/11/07 01:04:00;;;;;;;76.00;23.35;;;10.30;99.90;;;;;;5037330;28;20169;-88
2021/11/07 01:06:26;;;;;;;76.57;24.20;;;10.30;99.90;;;;;;5019827;28;20260;-88
2021/11/07 01:13:58;;;;;;;80.43;30.73;;;10.40;99.90;;;;;;5030944;28;20217;-88
2021/11/07 01:16:24;;;;;;;76.32;26.98;;;10.30;99.90;;;;;;5031789;28;20230;-87
2021/11/07 01:18:50;;;;;;;75.07;24.20;;;10.40;99.90;;;;;;5031461;28;20712;-88
2021/11/07 01:21:22;;;;;;;81.97;35.63;;;10.40;99.90;;;;;;5036126;28;20427;-87
2021/11/07 01:26:24;;;;;;;80.40;29.02;;;10.50;99.90;;;;;;5037035;28;20195;-88
2021/11/07 01:28:55;;;;;;;77.18;29.88;;;10.50;99.90;;;;;;5036637;28;20193;-88
2021/11/07 01:31:21;;;;;;;82.35;39.95;;;10.50;99.90;;;;;;5036545;28;20517;-88
2021/11/07 01:33:47;;;;;;;92.63;61.05;;;10.50;99.90;;;;;;5036276;28;20221;-87
2021/11/07 01:38:50;;;;;;;108.93;95.22;;;10.40;99.90;;;;;;5036392;28;20814;-88
2021/11/07 01:43:43;;;;;;;139.10;126.38;;;10.50;99.90;;;;;;5037180;28;20166;-87
2021/11/07 01:46:18;;;;;;;133.25;120.63;;;10.40;99.90;;;;;;5036332;28;20165;-88
2021/11/07 01:48:54;;;;;;;118.90;107.50;;;10.40;99.90;;;;;;5036129;28;20235;-88
2021/11/07 01:51:21;;;;;;;133.38;121.03;;;10.50;99.90;;;;;;5036266;28;20152;-88
2021/11/07 01:53:48;;;;;;;119.97;108.35;;;10.50;99.90;;;;;;5034893;28;20695;-88
2021/11/07 01:56:14;;;;;;;124.63;112.82;;;10.50;99.90;;;;;;5035894;28;20161;-88
2021/11/07 01:58:44;;;;;;;129.23;117.07;;;10.60;99.90;;;;;;5035686;28;20177;-88
2021/11/07 02:01:10;;;;;;;143.50;131.38;;;10.60;99.90;;;;;;5035827;28;20158;-88
2021/11/07 02:03:37;;;;;;;133.40;121.43;;;10.50;99.90;;;;;;5036061;28;20257;-87
2021/11/07 02:06:04;;;;;;;127.53;116.00;;;10.60;99.90;;;;;;5035683;28;20165;-87
2021/11/07 02:08:33;;;;;;;130.70;118.95;;;10.60;99.90;;;;;;5035504;28;20287;-88
2021/11/07 02:10:59;;;;;;;130.77;119.05;;;10.70;99.90;;;;;;5035897;28;20219;-87
2021/11/07 02:13:29;;;;;;;131.73;119.93;;;10.70;99.90;;;;;;5035654;28;20205;-87
2021/11/07 02:15:55;;;;;;;155.10;142.23;;;10.80;99.90;;;;;;5035869;28;20623;-87
2021/11/07 02:18:22;;;;;;;138.45;126.50;;;10.70;99.90;;;;;;5035665;28;20582;-87
2021/11/07 02:20:48;;;;;;;119.55;107.78;;;10.70;99.90;;;;;;5035762;28;20165;-87
2021/11/07 02:23:18;;;;;;;123.07;111.63;;;10.70;99.90;;;;;;5034649;28;20314;-87
2021/11/07 02:25:45;;;;;;;129.25;117.30;;;10.70;99.90;;;;;;5034225;28;20474;-88
2021/11/07 02:28:21;;;;;;;135.30;123.65;;;10.60;99.90;;;;;;5035314;28;20238;-88
2021/11/07 02:30:47;;;;;;;112.82;101.80;;;10.70;99.90;;;;;;5035133;28;20513;-87
2021/11/07 02:33:13;;;;;;;101.03;90.40;;;10.70;99.90;;;;;;5033320;28;20200;-87
2021/11/07 02:35:39;;;;;;;134.23;122.50;;;10.70;99.90;;;;;;5035191;28;20165;-87
2021/11/07 02:38:07;;;;;;;127.77;116.23;;;10.70;99.90;;;;;;5035062;28;20669;-87
2021/11/07 02:40:33;;;;;;;123.45;112.15;;;10.70;99.90;;;;;;5035507;28;20660;-87
2021/11/07 02:43:05;;;;;;;136.83;125.00;;;10.70;99.90;;;;;;5034076;28;20197;-88
2021/11/07 02:45:34;;;;;;;143.52;131.32;;;10.80;99.90;;;;;;5034961;28;20165;-88
2021/11/07 02:48:02;;;;;;;136.93;125.03;;;10.80;99.90;;;;;;5033654;28;20624;-88
2021/11/07 02:50:28;;;;;;;150.57;138.25;;;10.70;99.90;;;;;;5033570;28;20177;-88
2021/11/07 02:52:54;;;;;;;143.43;130.93;;;10.70;99.90;;;;;;5033736;28;20170;-88
2021/11/07 02:55:22;;;;;;;113.70;102.70;;;10.80;99.90;;;;;;5034785;28;20180;-88
2021/11/07 02:57:49;;;;;;;125.47;113.57;;;10.70;99.90;;;;;;5034883;28;20404;-88
2021/11/07 03:00:19;;;;;;;126.50;115.00;;;10.80;99.90;;;;;;5034649;28;20168;-87
2021/11/07 03:02:48;;;;;;;102.43;91.70;;;10.80;99.90;;;;;;5033334;28;20169;-88
2021/11/07 03:05:14;;;;;;;118.68;106.97;;;10.70;99.90;;;;;;5033633;28;20170;-88
2021/11/07 03:07:42;;;;;;;111.25;99.32;;;10.80;99.90;;;;;;5034532;28;20161;-88
2021/11/07 03:10:10;;;;;;;110.30;98.88;;;10.80;99.90;;;;;;5034690;28;20231;-88
2021/11/07 03:12:37;;;;;;;98.32;85.43;;;10.70;99.90;;;;;;5033205;28;20185;-87
2021/11/07 03:15:05;;;;;;;99.18;88.55;;;10.70;99.90;;;;;;5034863;28;20185;-88
2021/11/07 03:17:31;;;;;;;108.35;97.20;;;10.70;99.90;;;;;;5033064;28;20540;-88
2021/11/07 03:19:56;;;;;;;187.00;172.13;;;10.70;99.90;;;;;;5034304;28;20181;-88
2021/11/07 03:22:27;;;;;;;108.27;97.17;;;10.70;99.90;;;;;;5016619;28;20165;-87
2021/11/07 03:24:54;;;;;;;111.03;99.93;;;10.80;99.90;;;;;;5032891;28;20256;-88
2021/11/07 03:27:30;;;;;;;105.15;93.30;;;10.80;99.90;;;;;;5034323;28;20161;-87
2021/11/07 03:29:58;;;;;;;232.63;215.88;;;10.80;99.90;;;;;;5032840;28;20192;-87
2021/11/07 03:32:27;;;;;;;207.80;192.48;;;10.80;99.90;;;;;;5034179;28;20161;-88
2021/11/07 03:34:57;;;;;;;246.25;229.63;;;10.80;99.90;;;;;;5033969;28;20185;-87
2021/11/07 03:37:27;;;;;;;302.77;284.13;;;10.80;99.90;;;;;;5033980;28;20158;-87
2021/11/07 03:39:56;;;;;;;307.35;288.88;;;10.70;99.90;;;;;;5034030;28;20173;-87
2021/11/07 03:42:23;;;;;;;261.70;244.80;;;10.70;99.90;;;;;;5032251;28;20165;-88
2021/11/07 03:44:49;;;;;;;277.27;259.70;;;10.80;99.90;;;;;;5033874;28;20165;-88
2021/11/07 03:47:15;;;;;;;202.65;187.98;;;10.80;99.90;;;;;;5033860;28;20165;-88
2021/11/07 03:49:42;;;;;;;191.93;177.45;;;10.80;99.90;;;;;;5032583;28;20197;-88
2021/11/07 03:52:09;;;;;;;237.45;221.27;;;10.80;99.90;;;;;;5034073;28;20169;-88
2021/11/07 03:54:35;;;;;;;200.90;185.77;;;10.90;99.90;;;;;;5033789;28;20288;-88
2021/11/07 03:57:05;;;;;;;236.53;220.57;;;10.80;99.90;;;;;;5033681;28;20696;-88
2021/11/07 03:59:31;;;;;;;261.00;244.10;;;10.80;99.90;;;;;;5033275;28;20454;-88
2021/11/07 04:02:01;;;;;;;267.25;250.30;;;10.80;99.90;;;;;;5033610;28;20165;-87
2021/11/07 04:04:26;;;;;;;276.48;259.05;;;10.90;99.90;;;;;;5032074;28;20181;-88
2021/11/07 04:06:52;;;;;;;261.20;244.00;;;10.80;99.90;;;;;;5033557;28;20537;-88
2021/11/07 04:09:19;;;;;;;265.73;248.53;;;10.90;99.90;;;;;;5032201;28;20553;-88
2021/11/07 04:11:45;;;;;;;275.33;258.20;;;10.90;99.90;;;;;;5033554;28;20169;-88
2021/11/07 04:14:12;;;;;;;282.47;264.83;;;10.90;99.90;;;;;;5032497;28;20200;-88
2021/11/07 04:16:38;;;;;;;300.58;282.38;;;10.90;99.90;;;;;;5033360;28;20907;-87
2021/11/07 04:19:05;;;;;;;231.55;215.65;;;10.90;99.90;;;;;;5032290;28;20235;-88
2021/11/07 04:21:32;;;;;;;206.32;191.15;;;11.00;99.90;;;;;;5033256;28;20172;-88
2021/11/07 04:24:00;;;;;;;122.70;111.07;;;11.00;99.90;;;;;;5033559;28;20162;-88
2021/11/07 04:26:26;;;;;;;130.65;118.78;;;11.00;99.90;;;;;;5033509;28;20168;-87
2021/11/07 04:28:51;;;;;;;151.87;138.80;;;11.00;99.90;;;;;;5033396;28;20192;-88
2021/11/07 04:31:17;;;;;;;163.33;149.93;;;11.00;99.90;;;;;;5033423;28;20174;-88
2021/11/07 04:33:44;;;;;;;157.37;144.33;;;11.00;99.90;;;;;;5033112;28;20444;-88
2021/11/07 04:36:11;;;;;;;251.52;234.98;;;11.00;99.90;;;;;;5033121;28;20403;-87
2021/11/07 04:38:37;;;;;;;299.20;281.13;;;10.90;99.90;;;;;;5016421;28;20238;-88
2021/11/07 04:41:06;;;;;;;233.18;217.23;;;10.90;99.90;;;;;;5032318;28;20193;-88
2021/11/07 04:43:32;;;;;;;171.48;157.88;;;11.00;99.90;;;;;;5033120;28;20207;-88
2021/11/07 04:45:58;;;;;;;117.25;105.93;;;11.00;99.90;;;;;;5033097;28;20172;-88
2021/11/07 04:48:26;;;;;;;143.40;130.53;;;11.10;99.90;;;;;;5033011;28;20181;-88
2021/11/07 04:50:52;;;;;;;224.65;209.02;;;11.00;99.90;;;;;;5033634;28;20165;-88
2021/11/07 04:53:21;;;;;;;142.80;130.37;;;11.00;99.90;;;;;;5031657;28;20564;-88
2021/11/07 04:55:48;;;;;;;217.82;201.93;;;11.10;99.90;;;;;;5035679;28;20165;-88
2021/11/07 04:58:14;;;;;;;174.98;161.05;;;11.10;99.90;;;;;;5035728;28;20189;-88
2021/11/07 05:00:41;;;;;;;198.15;183.43;;;11.10;99.90;;;;;;5037467;28;20624;-88
2021/11/07 05:03:08;;;;;;;233.32;217.73;;;11.00;99.90;;;;;;5035165;28;20177;-88
2021/11/07 05:05:35;;;;;;;224.90;208.75;;;11.00;99.90;;;;;;5035620;28;20536;-88
2021/11/07 05:08:01;;;;;;;230.88;215.10;;;11.00;99.90;;;;;;5035699;28;20248;-88
2021/11/07 05:10:27;;;;;;;230.60;214.57;;;11.00;99.90;;;;;;5035575;28;20264;-88
2021/11/07 05:12:53;;;;;;;200.05;185.20;;;11.00;99.90;;;;;;5035220;28;20943;-88
2021/11/07 05:15:20;;;;;;;218.80;203.43;;;11.00;99.90;;;;;;5036629;28;20176;-88
2021/11/07 05:17:46;;;;;;;202.55;187.57;;;11.00;99.90;;;;;;5036552;28;20252;-88
2021/11/07 05:20:15;;;;;;;222.60;207.40;;;11.00;99.90;;;;;;5036560;28;20157;-88
2021/11/07 05:22:44;;;;;;;226.70;211.13;;;11.00;99.90;;;;;;5036486;28;20212;-88
2021/11/07 05:25:12;;;;;;;191.15;176.52;;;11.10;99.90;;;;;;5036455;28;20184;-88
2021/11/07 05:27:38;;;;;;;222.32;207.27;;;11.10;99.90;;;;;;5035160;28;20165;-87
2021/11/07 05:30:06;;;;;;;169.73;156.07;;;11.10;99.90;;;;;;5036357;28;20200;-88
2021/11/07 05:32:32;;;;;;;169.85;156.50;;;11.10;99.90;;;;;;5035902;28;20408;-88
2021/11/07 05:34:58;;;;;;;175.57;161.63;;;11.10;99.90;;;;;;5035026;28;20200;-88
2021/11/07 05:37:27;;;;;;;197.77;182.73;;;11.10;99.90;;;;;;5035065;28;20419;-88
2021/11/07 05:39:55;;;;;;;285.00;267.15;;;11.10;99.90;;;;;;5036028;28;20188;-88
2021/11/07 05:42:21;;;;;;;216.02;200.88;;;11.10;99.90;;;;;;5036181;28;20162;-88
2021/11/07 05:44:48;;;;;;;282.90;264.77;;;11.10;99.90;;;;;;5035194;28;20623;-88
2021/11/07 05:47:14;;;;;;;300.05;281.85;;;11.00;99.90;;;;;;5036061;28;20227;-87
2021/11/07 05:49:40;;;;;;;324.45;305.48;;;11.00;99.90;;;;;;5036034;28;20530;-88
2021/11/07 05:52:06;;;;;;;323.47;304.83;;;11.00;99.90;;;;;;5035141;28;20223;-88
2021/11/07 05:54:36;;;;;;;316.33;298.00;;;11.00;99.90;;;;;;5035876;28;20526;-88
2021/11/07 05:57:05;;;;;;;280.08;262.50;;;11.00;99.90;;;;;;5036005;28;20170;-88
2021/11/07 05:59:33;;;;;;;284.98;267.73;;;11.10;99.90;;;;;;5037698;28;20224;-88
2021/11/07 06:01:58;;;;;;;339.90;319.10;;;11.00;99.90;;;;;;5036082;28;20248;-88
2021/11/07 06:04:24;;;;;;;290.03;272.67;;;11.00;99.90;;;;;;5036356;28;20242;-88
2021/11/07 06:06:53;;;;;;;335.17;315.73;;;11.10;99.90;;;;;;5035557;28;20687;-88
2021/11/07 06:09:22;;;;;;;355.15;334.77;;;11.00;99.90;;;;;;5034780;28;20192;-88
2021/11/07 06:11:47;;;;;;;338.52;318.75;;;11.00;99.90;;;;;;5034326;28;20655;-88
2021/11/07 06:14:13;;;;;;;223.77;208.57;;;11.10;99.90;;;;;;5035563;28;20185;-88
2021/11/07 06:16:39;;;;;;;225.73;210.70;;;11.10;99.90;;;;;;5034564;28;20507;-88
2021/11/07 06:19:05;;;;;;;295.13;277.17;;;11.10;99.90;;;;;;5035677;28;20192;-88
2021/11/07 06:21:35;;;;;;;304.60;286.13;;;11.10;99.90;;;;;;5033938;28;20181;-88
2021/11/07 06:24:07;;;;;;;281.70;263.95;;;11.10;99.90;;;;;;5034226;28;20648;-88
2021/11/07 06:26:33;;;;;;;258.60;242.35;;;11.10;99.90;;;;;;5035729;28;20197;-88
2021/11/07 06:28:59;;;;;;;340.20;320.67;;;11.10;99.90;;;;;;5035390;28;20216;-88
2021/11/07 06:31:27;;;;;;;305.88;287.65;;;11.10;99.90;;;;;;5034839;28;20415;-88
2021/11/07 06:34:05;;;;;;;259.08;242.73;;;11.10;99.90;;;;;;5035492;28;20247;-88
2021/11/07 06:36:31;;;;;;;298.40;280.60;;;11.10;99.90;;;;;;5034154;28;20537;-87
2021/11/07 06:38:59;;;;;;;288.33;270.97;;;11.10;99.90;;;;;;5034272;28;20185;-88
2021/11/07 06:41:25;;;;;;;339.20;319.55;;;11.10;99.90;;;;;;5034184;28;20392;-88
2021/11/07 06:43:54;;;;;;;343.75;324.42;;;11.00;99.90;;;;;;5125672;22;20225;-86
2021/11/07 06:46:22;;;;;;;250.23;234.50;;;11.00;99.90;;;;;;5038344;28;20161;-85
2021/11/07 06:48:49;;;;;;;255.38;239.43;;;11.10;99.90;;;;;;5037806;28;20185;-85
2021/11/07 06:51:16;;;;;;;306.98;288.45;;;11.10;99.90;;;;;;5039612;28;20188;-86
2021/11/07 06:53:45;;;;;;;293.48;275.70;;;11.10;99.90;;;;;;5039330;28;20188;-86
2021/11/07 06:56:10;;;;;;;322.13;303.48;;;11.10;99.90;;;;;;5038974;28;20166;-86
2021/11/07 06:58:36;;;;;;;307.97;289.67;;;11.10;99.90;;;;;;5039166;28;20284;-85
2021/11/07 07:01:02;;;;;;;223.60;208.23;;;11.10;99.90;;;;;;5037978;28;20400;-86
2021/11/07 07:03:28;;;;;;;224.60;208.77;;;11.10;99.90;;;;;;5038115;28;20169;-86
2021/11/07 07:05:57;;;;;;;244.37;228.43;;;11.20;99.90;;;;;;5039570;28;20152;-86
2021/11/07 07:08:25;;;;;;;249.45;232.98;;;11.20;99.90;;;;;;5037330;28;20201;-85
2021/11/07 07:13:35;;;;;;;214.10;199.40;;;11.20;99.90;;;;;;5039863;28;20181;-86
2021/11/07 07:29:51;;;;;;;277.92;260.63;;;11.20;99.90;;;;;;5034703;28;20193;-86
2021/11/07 07:35:03;;;;;;;345.42;325.33;;;11.20;99.90;;;;;;5037573;28;20216;-85
2021/11/07 07:37:29;;;;;;;285.20;267.73;;;11.20;99.90;;;;;;5036563;28;20153;-85
2021/11/07 07:39:55;;;;;;;348.30;328.33;;;11.20;99.90;;;;;;5036551;28;20185;-86
2021/11/07 07:42:21;;;;;;;334.03;314.73;;;11.20;99.90;;;;;;5036727;28;20400;-86
2021/11/07 07:44:51;;;;;;;310.52;292.50;;;11.10;99.90;;;;;;5037327;28;20184;-86
2021/11/07 07:47:17;;;;;;;325.95;306.73;;;11.10;99.90;;;;;;5037489;28;20624;-85
2021/11/07 07:49:43;;;;;;;283.95;267.02;;;11.10;99.90;;;;;;5038905;28;20192;-85
2021/11/07 07:52:10;;;;;;;302.23;284.20;;;11.10;99.90;;;;;;5038155;28;20170;-86
2021/11/07 07:54:36;;;;;;;253.02;236.75;;;11.00;99.90;;;;;;5037483;28;20185;-86
2021/11/07 07:57:02;;;;;;;285.77;268.47;;;11.00;99.90;;;;;;5037110;28;20690;-86
2021/11/07 07:59:28;;;;;;;253.60;237.15;;;11.00;99.90;;;;;;5035603;28;20220;-86
2021/11/07 08:01:55;;;;;;;230.23;214.60;;;11.00;99.90;;;;;;5036326;28;20534;-87
2021/11/07 08:04:22;;;;;;;231.15;216.00;;;11.00;99.90;;;;;;5037688;28;20248;-86
2021/11/07 08:06:48;;;;;;;257.42;240.77;;;11.00;99.90;;;;;;5036933;28;20616;-85
2021/11/07 08:09:13;;;;;;;244.20;228.23;;;11.00;99.90;;;;;;5036716;28;20204;-87
2021/11/07 08:11:39;;;;;;;239.30;223.50;;;11.00;99.90;;;;;;5038232;28;20412;-86
2021/11/07 08:14:06;;;;;;;301.97;283.73;;;11.00;99.90;;;;;;5038343;28;20201;-87
2021/11/07 08:16:32;;;;;;;241.77;225.73;;;11.00;99.90;;;;;;5038307;28;20400;-86
2021/11/07 08:18:58;;;;;;;264.43;248.00;;;11.10;99.90;;;;;;5038136;28;20251;-87
2021/11/07 08:21:30;;;;;;;230.63;215.03;;;11.10;99.90;;;;;;5038753;28;20440;-86
2021/11/07 08:23:56;;;;;;;263.08;246.98;;;11.10;99.90;;;;;;5036522;28;20398;-86
2021/11/07 08:26:22;;;;;;;233.60;218.37;;;11.10;99.90;;;;;;5035055;28;20252;-86
2021/11/07 08:28:49;;;;;;;217.27;202.52;;;11.20;99.90;;;;;;5036100;28;20522;-86
2021/11/07 08:31:23;;;;;;;235.15;219.35;;;11.20;99.90;;;;;;5034523;28;20180;-86
2021/11/07 08:33:49;;;;;;;235.10;219.50;;;11.20;99.90;;;;;;5035410;28;20182;-86
2021/11/07 08:36:41;;;;;;;245.60;229.25;;;11.20;99.90;;;;;;5035481;28;20148;-86
2021/11/07 08:39:21;;;;;;;247.95;232.23;;;11.30;99.90;;;;;;5035164;28;20181;-85
2021/11/07 09:01:16;;;;;;;275.80;259.10;;;11.30;99.90;;;;;;5034170;28;20157;-86
2021/11/07 09:03:47;;;;;;;284.52;267.20;;;11.30;99.90;;;;;;5034105;28;20158;-87
2021/11/07 09:07:14;;;;;;;285.20;268.13;;;11.40;99.90;;;;;;5033031;28;20169;-86
2021/11/07 09:09:43;;;;;;;300.60;282.55;;;11.40;99.90;;;;;;5033341;28;20289;-86
2021/11/07 09:12:52;;;;;;;294.77;277.00;;;11.40;99.90;;;;;;5032722;28;20261;-86
2021/11/07 09:15:49;;;;;;;327.65;308.80;;;11.50;99.90;;;;;;5028311;28;20665;-86
2021/11/07 09:19:11;;;;;;;;;;;;;;;;;;;;;
2021/11/07 09:25:25;;;;;;;317.13;298.73;;;11.50;99.90;;;;;;4994964;28;20166;-86
2021/11/07 09:28:24;;;;;;;373.65;353.05;;;11.50;99.90;;;;;;5030522;28;20636;-86
2021/11/07 09:31:11;;;;;;;303.75;285.95;;;11.50;99.90;;;;;;5032209;28;20223;-86
2021/11/07 09:44:09;;;;;;;127.47;115.32;;;11.70;99.90;;;;;;5020041;28;20196;-87
2021/11/07 09:47:13;;;;;;;128.63;116.03;;;11.70;1.00;;;;;;5035397;28;20268;-87
2021/11/07 09:50:34;;;;;;;126.13;113.47;;;11.70;99.90;;;;;;4978960;28;20285;-86
2021/11/07 09:53:42;;;;;;;100.65;86.00;;;11.70;99.90;;;;;;4966377;28;20184;-86
2021/11/07 09:56:54;;;;;;;131.57;119.22;;;11.90;99.90;;;;;;4977108;28;20184;-87
2021/11/07 09:59:57;;;;;;;200.43;185.43;;;11.90;99.90;;;;;;4976468;28;20374;-87
2021/11/07 10:02:50;;;;;;;178.35;164.45;;;11.90;99.90;;;;;;4966312;28;20173;-87
2021/11/07 10:05:25;;;;;;;126.13;114.05;;;12.00;99.90;;;;;;5034353;28;20640;-86
2021/11/07 10:08:27;;;;;;;124.05;111.07;;;12.00;99.90;;;;;;5035302;28;20165;-87
2021/11/07 10:11:08;;;;;;;90.70;62.40;;;12.10;99.90;;;;;;5035911;28;20195;-87
2021/11/07 10:14:21;;;;;;;84.40;45.72;;;12.10;99.90;;;;;;5035200;28;20201;-87
2021/11/07 10:20:59;;;;;;;;;;;;;;;;;;;;;
2021/11/07 10:24:56;;;;;;;;;;;;;;;;;;;;;
2021/11/07 10:27:59;;;;;;;78.95;24.90;;;12.50;99.90;;;;;;4973953;28;20177;-86
2021/11/07 10:31:02;;;;;;;78.70;23.90;;;12.50;99.90;;;;;;4979155;28;20174;-86
2021/11/07 10:54:48;;;;;;;78.28;20.60;;;12.20;99.90;;;;;;5035992;28;20679;-86
2021/11/07 10:58:28;;;;;;;;;;;;;;;;;;;;;
2021/11/07 11:01:11;;;;;;;82.95;32.72;;;12.30;99.90;;;;;;5035820;28;20176;-86
2021/11/07 11:04:00;;;;;;;78.68;30.60;;;12.10;99.90;;;;;;5035424;28;20177;-86
2021/11/07 11:07:11;;;;;;;83.28;36.17;;;12.00;99.90;;;;;;5034588;28;20223;-86
2021/11/07 11:10:24;;;;;;;85.53;36.85;;;12.10;99.90;;;;;;4976742;28;20202;-85
2021/11/07 11:13:17;;;;;;;83.95;33.95;;;12.10;99.90;;;;;;5036368;28;20150;-86
2021/11/07 11:33:10;;;;;;;;;;;;;;;;;;;;;
2021/11/07 11:42:22;;;;;;;81.70;23.52;;;11.80;99.90;;;;;;4993621;28;20178;-87
2021/11/07 11:45:18;;;;;;;;;;;;;;;;;;;;;
2021/11/07 11:54:36;;;;;;;78.60;29.98;;;11.70;99.90;;;;;;5035191;28;20264;-86
2021/11/07 12:01:10;;;;;;;76.80;25.95;;;12.00;99.90;;;;;;5022745;28;20169;-86
2021/11/07 12:04:58;;;;;;;76.30;19.67;;;12.30;99.90;;;;;;5034476;28;20235;-86
2021/11/07 12:07:32;;;;;;;78.45;21.17;;;12.50;99.90;;;;;;5028461;28;20528;-86
2021/11/07 12:10:27;;;;;;;76.93;17.70;;;12.50;99.90;;;;;;5035186;28;20737;-86
2021/11/07 12:13:56;;;;;;;81.70;21.88;;;12.40;99.90;;;;;;5027022;28;20181;-87
2021/11/07 12:16:47;;;;;;;76.38;19.42;;;12.30;99.90;;;;;;5035503;28;20173;-86
2021/11/07 12:19:34;;;;;;;76.93;23.55;;;12.20;99.90;;;;;;5036528;28;20180;-86
2021/11/07 12:22:22;;;;;;;77.55;13.98;;;12.10;99.40;;;;;;5034697;28;20164;-87
2021/11/07 12:24:58;;;;;;;74.10;17.75;;;12.00;99.90;;;;;;5036118;28;20161;-87
2021/11/07 12:27:55;;;;;;;79.50;19.05;;;12.00;99.90;;;;;;5034802;28;20192;-86
2021/11/07 12:30:31;;;;;;;74.80;19.13;;;12.00;99.90;;;;;;5040627;28;20146;-87
2021/11/07 12:33:16;;;;;;;77.15;19.45;;;11.90;99.90;;;;;;5040891;28;20236;-86
2021/11/07 12:36:25;;;;;;;77.15;21.00;;;11.90;99.90;;;;;;5039191;28;20196;-86
2021/11/07 12:41:27;;;;;;;79.35;23.20;;;11.80;99.90;;;;;;5040477;28;20156;-87
2021/11/07 12:44:05;;;;;;;75.65;18.75;;;11.80;99.90;;;;;;5107294;23;20216;-87
2021/11/07 12:46:44;;;;;;;81.07;20.25;;;11.90;99.90;;;;;;5035406;28;20142;-87
2021/11/07 12:49:15;;;;;;;76.07;20.10;;;12.00;99.90;;;;;;5035810;28;20181;-87
2021/11/07 12:51:47;;;;;;;79.10;21.27;;;12.10;99.90;;;;;;5035464;28;20165;-87
2021/11/07 12:54:34;;;;;;;79.25;20.85;;;12.20;99.90;;;;;;5036008;28;20250;-87
2021/11/07 12:57:11;;;;;;;77.60;19.85;;;12.30;99.90;;;;;;5035546;28;20149;-86
2021/11/07 12:59:49;;;;;;;74.50;18.45;;;12.50;99.90;;;;;;5036611;28;20188;-87
2021/11/07 13:02:18;;;;;;;76.68;21.42;;;12.50;99.90;;;;;;5036268;28;20172;-87
2021/11/07 13:05:27;;;;;;;74.40;18.75;;;12.50;99.90;;;;;;5035063;28;20176;-87
2021/11/07 13:10:46;;;;;;;73.68;16.23;;;12.40;99.90;;;;;;5038239;28;20211;-87
2021/11/07 13:24:24;;;;;;;74.28;17.67;;;12.40;99.90;;;;;;5040801;28;20232;-87
2021/11/07 13:27:03;;;;;;;74.68;13.80;;;12.30;99.90;;;;;;5041260;28;20176;-87
2021/11/07 13:29:34;;;;;;;81.18;16.40;;;12.30;99.90;;;;;;5040838;28;20695;-87
2021/11/07 13:35:03;;;;;;;74.50;20.02;;;12.40;98.90;;;;;;5043348;28;20188;-87
2021/11/07 13:37:41;;;;;;;74.03;23.13;;;12.40;99.90;;;;;;5041180;28;20199;-87
2021/11/07 13:40:16;;;;;;;78.00;15.82;;;12.30;99.90;;;;;;5208343;22;20227;-87
2021/11/07 13:42:45;;;;;;;76.78;15.38;;;12.30;99.90;;;;;;5111696;22;20220;-87
2021/11/07 13:45:28;;;;;;;74.80;15.73;;;12.30;99.90;;;;;;5039613;28;20565;-87
2021/11/07 13:48:00;;;;;;;76.55;17.25;;;12.20;99.90;;;;;;5023845;28;20166;-87
2021/11/07 13:50:32;;;;;;;78.43;16.63;;;12.10;99.90;;;;;;5022945;28;20180;-87
2021/11/07 13:52:59;;;;;;;74.13;16.08;;;12.00;99.90;;;;;;5042041;28;20158;-87
2021/11/07 13:55:32;;;;;;;73.25;13.20;;;12.00;99.90;;;;;;5022194;28;20753;-87
2021/11/07 13:58:17;;;;;;;75.90;13.65;;;11.90;99.90;;;;;;5040680;28;20142;-87
2021/11/07 14:00:45;;;;;;;89.22;29.48;;;11.90;99.90;;;;;;5040554;28;20206;-87
2021/11/07 14:03:31;;;;;;;78.10;16.63;;;11.90;99.90;;;;;;5039818;28;20192;-87
2021/11/07 14:06:13;;;;;;;78.95;15.32;;;11.90;99.90;;;;;;5022931;28;20158;-87
2021/11/07 14:08:55;;;;;;;78.30;16.00;;;11.90;99.90;;;;;;5040945;28;20272;-87
2021/11/07 14:11:22;;;;;;;77.40;14.25;;;11.90;99.90;;;;;;5023241;28;20240;-87
2021/11/07 14:13:51;;;;;;;76.40;14.88;;;11.90;99.90;;;;;;5041027;28;20185;-87
2021/11/07 14:16:41;;;;;;;74.38;15.23;;;11.90;99.90;;;;;;5040799;28;20165;-86
2021/11/07 14:19:07;;;;;;;79.30;15.48;;;12.00;99.90;;;;;;5040927;28;20177;-87
2021/11/07 14:21:57;;;;;;;77.75;14.25;;;12.00;99.90;;;;;;5039790;28;20526;-87
2021/11/07 14:24:29;;;;;;;73.47;14.35;;;12.10;99.90;;;;;;5022307;28;20197;-87
2021/11/07 14:27:02;;;;;;;74.70;15.85;;;12.10;99.90;;;;;;5040313;28;20165;-87
2021/11/07 14:35:26;;;;;;;84.93;39.30;;;11.90;96.90;;;;;;4978573;28;20261;-87
2021/11/07 14:37:58;;;;;;;87.55;24.25;;;11.80;97.90;;;;;;4978822;28;20186;-87
2021/11/07 14:40:48;;;;;;;82.35;28.25;;;11.70;97.70;;;;;;5018469;28;20592;-87
2021/11/07 14:43:29;;;;;;;78.68;25.40;;;11.70;97.60;;;;;;5040530;28;20147;-87
2021/11/07 14:51:27;;;;;;;77.10;18.85;;;11.60;99.10;;;;;;5040099;28;20161;-87
2021/11/07 14:57:16;;;;;;;75.72;14.07;;;11.60;99.70;;;;;;5039850;28;20170;-87
2021/11/07 14:59:52;;;;;;;73.03;11.88;;;11.50;99.90;;;;;;5039779;28;20738;-87
2021/11/07 15:04:55;;;;;;;75.68;14.50;;;11.50;99.90;;;;;;5040247;28;20165;-87
2021/11/07 15:07:31;;;;;;;73.82;15.13;;;11.40;99.90;;;;;;5039742;28;20162;-87
2021/11/07 15:10:45;;;;;;;79.28;18.65;;;11.40;99.90;;;;;;5038756;28;20197;-87
2021/11/07 15:16:05;;;;;;;72.22;14.60;;;11.30;99.90;;;;;;5039874;28;20152;-87
2021/11/07 15:18:45;;;;;;;74.88;17.73;;;11.30;99.90;;;;;;5040351;28;20208;-87
2021/11/07 15:24:20;;;;;;;79.40;20.73;;;11.20;99.90;;;;;;5039237;28;20232;-87
2021/11/07 15:26:58;;;;;;;75.70;18.85;;;11.20;99.90;;;;;;5022049;28;20194;-87
2021/11/07 15:29:44;;;;;;;79.00;21.85;;;11.20;99.90;;;;;;5039059;28;20209;-87
2021/11/07 15:32:15;;;;;;;78.72;18.35;;;11.10;99.90;;;;;;5039264;28;20149;-87
2021/11/07 15:34:44;;;;;;;77.53;17.55;;;11.00;99.90;;;;;;5038878;28;20177;-86
2021/11/07 15:37:23;;;;;;;76.97;17.23;;;11.00;99.90;;;;;;5020262;28;20243;-87
2021/11/07 15:39:53;;;;;;;73.93;15.45;;;11.00;99.90;;;;;;5037167;28;20188;-86
2021/11/07 15:42:23;;;;;;;77.78;18.67;;;10.90;99.90;;;;;;5037307;28;20219;-86
2021/11/07 15:45:01;;;;;;;87.15;16.20;;;10.90;99.90;;;;;;5021081;28;20157;-87
2021/11/07 15:47:30;;;;;;;88.25;16.35;;;10.90;99.90;;;;;;5039844;28;20157;-87
2021/11/07 15:50:15;;;;;;;75.97;13.52;;;10.90;99.90;;;;;;5038593;28;20187;-87
2021/11/07 15:52:47;;;;;;;76.72;14.15;;;10.90;99.90;;;;;;5020906;28;20169;-86
2021/11/07 16:00:54;;;;;;;76.32;15.02;;;10.90;99.90;;;;;;5037969;28;20160;-87
2021/11/07 16:09:18;;;;;;;75.45;19.92;;;10.90;99.90;;;;;;5037788;28;20187;-87
2021/11/07 16:14:22;;;;;;;85.07;19.02;;;10.90;99.90;;;;;;5037859;28;20748;-87
2021/11/07 16:16:51;;;;;;;76.80;18.48;;;10.90;99.90;;;;;;5019872;28;20179;-87
2021/11/07 16:19:21;;;;;;;80.05;19.95;;;10.90;99.90;;;;;;5019592;28;20555;-87
2021/11/07 16:21:49;;;;;;;76.97;18.13;;;10.90;99.90;;;;;;5020220;28;20160;-86
2021/11/07 16:24:30;;;;;;;76.13;19.85;;;10.80;99.90;;;;;;5038049;28;20153;-87